createdAt,value
2017-11-11T00:00:45.117Z,0
2017-11-11T00:02:46.789Z,0
2017-11-11T00:04:48.440Z,0
2017-11-11T00:06:50.046Z,0
2017-11-11T00:08:52.009Z,0
2017-11-11T00:10:53.843Z,0
2017-11-11T00:12:55.617Z,0
2017-11-11T00:14:57.290Z,0
2017-11-11T00:16:58.959Z,0
2017-11-11T00:19:01.119Z,0
2017-11-11T00:21:02.742Z,0
2017-11-11T00:23:04.370Z,0
2017-11-11T00:25:06.081Z,0
2017-11-11T00:27:07.639Z,0
2017-11-11T00:29:09.399Z,0
2017-11-11T00:31:11.047Z,0
2017-11-11T00:33:12.733Z,0
2017-11-11T00:35:14.600Z,0
2017-11-11T00:37:16.493Z,0
2017-11-11T00:39:18.210Z,0
2017-11-11T00:41:19.849Z,0
2017-11-11T00:43:21.590Z,0
2017-11-11T00:45:23.411Z,0
2017-11-11T00:47:25.098Z,0
2017-11-11T00:49:26.749Z,0
2017-11-11T00:51:28.410Z,0
2017-11-11T00:53:30.322Z,0
2017-11-11T00:55:32.273Z,0
2017-11-11T00:57:34.221Z,0
2017-11-11T00:59:35.962Z,0
2017-11-11T01:01:37.607Z,0
2017-11-11T01:03:39.288Z,0
2017-11-11T01:05:41.149Z,0
2017-11-11T01:07:42.880Z,0
2017-11-11T01:09:44.533Z,0
2017-11-11T01:11:46.355Z,0
2017-11-11T01:13:48.247Z,0
2017-11-11T01:15:49.956Z,0
2017-11-11T01:17:51.753Z,0
2017-11-11T01:19:53.718Z,0
2017-11-11T01:21:55.317Z,0
2017-11-11T01:23:56.977Z,0
2017-11-11T01:25:58.751Z,0
2017-11-11T01:28:00.401Z,0
2017-11-11T01:30:02.422Z,0
2017-11-11T01:32:04.136Z,0
2017-11-11T01:34:06.112Z,0
2017-11-11T01:36:07.821Z,0
2017-11-11T01:38:09.527Z,0
2017-11-11T01:40:11.460Z,0
2017-11-11T01:42:13.153Z,0
2017-11-11T01:44:14.680Z,0
2017-11-11T01:46:16.640Z,0
2017-11-11T01:48:18.275Z,0
2017-11-11T01:50:20.243Z,0
2017-11-11T01:52:22.311Z,0
2017-11-11T01:54:24.054Z,0
2017-11-11T01:56:26.002Z,0
2017-11-11T01:58:28.048Z,0
2017-11-11T02:00:29.720Z,0
2017-11-11T02:02:31.349Z,0
2017-11-11T02:04:33.069Z,0
2017-11-11T02:06:34.689Z,0
2017-11-11T02:08:36.370Z,0
2017-11-11T02:10:37.989Z,0
2017-11-11T02:12:39.693Z,0
2017-11-11T02:14:41.316Z,0
2017-11-11T02:16:43.279Z,0
2017-11-11T02:18:44.968Z,0
2017-11-11T02:20:46.632Z,0
2017-11-11T02:22:48.343Z,0
2017-11-11T02:24:50.064Z,0
2017-11-11T02:26:51.820Z,0
2017-11-11T02:28:53.814Z,0
2017-11-11T02:30:55.421Z,0
2017-11-11T02:32:57.120Z,0
2017-11-11T02:34:59.161Z,0
2017-11-11T02:37:00.872Z,0
2017-11-11T02:39:02.544Z,0
2017-11-11T02:41:04.222Z,0
2017-11-11T02:43:05.926Z,0
2017-11-11T02:45:07.650Z,0
2017-11-11T02:47:09.474Z,0
2017-11-11T02:49:11.163Z,0
2017-11-11T02:51:12.878Z,0
2017-11-11T02:53:14.991Z,0
2017-11-11T02:55:16.600Z,0
2017-11-11T02:57:18.594Z,0
2017-11-11T02:59:20.475Z,0
2017-11-11T03:01:22.036Z,0
2017-11-11T03:03:23.752Z,0
2017-11-11T03:05:25.423Z,0
2017-11-11T03:07:27.249Z,0
2017-11-11T03:09:29.001Z,0
2017-11-11T03:11:30.768Z,0
2017-11-11T03:13:32.637Z,0
2017-11-11T03:15:34.674Z,0
2017-11-11T03:17:36.278Z,0
2017-11-11T03:19:38.187Z,0
2017-11-11T03:21:39.825Z,0
2017-11-11T03:23:41.716Z,0
2017-11-11T03:25:43.587Z,0
2017-11-11T03:27:45.606Z,0
2017-11-11T03:29:47.393Z,0
2017-11-11T03:31:49.085Z,0
2017-11-11T03:33:50.793Z,0
2017-11-11T03:35:52.732Z,0
2017-11-11T03:37:54.335Z,0
2017-11-11T03:39:56.025Z,0
2017-11-11T03:41:57.983Z,0
2017-11-11T03:44:00.167Z,0
2017-11-11T03:46:01.852Z,0
2017-11-11T03:48:03.528Z,0
2017-11-11T03:50:05.330Z,0
2017-11-11T03:52:06.976Z,0
2017-11-11T03:54:08.634Z,0
2017-11-11T03:56:10.279Z,0
2017-11-11T03:58:11.884Z,0
2017-11-11T04:00:13.508Z,0
2017-11-11T04:02:15.185Z,0
2017-11-11T04:04:16.825Z,0
2017-11-11T04:06:18.671Z,0
2017-11-11T04:08:20.317Z,0
2017-11-11T04:10:21.982Z,0
2017-11-11T04:12:23.970Z,0
2017-11-11T04:14:25.664Z,0
2017-11-11T04:16:27.349Z,0
2017-11-11T04:18:29.151Z,0
2017-11-11T04:20:30.896Z,0
2017-11-11T04:22:32.645Z,0
2017-11-11T04:24:34.349Z,0
2017-11-11T04:26:36.044Z,0
2017-11-11T04:28:38.062Z,0
2017-11-11T04:30:39.710Z,0
2017-11-11T04:32:41.387Z,0
2017-11-11T04:34:43.029Z,0
2017-11-11T04:36:44.698Z,0
2017-11-11T04:38:46.482Z,0
2017-11-11T04:40:48.182Z,0
2017-11-11T04:42:49.914Z,0
2017-11-11T04:44:51.621Z,0
2017-11-11T04:46:53.290Z,0
2017-11-11T04:48:55.186Z,0
2017-11-11T04:50:56.824Z,0
2017-11-11T04:52:58.543Z,0
2017-11-11T04:55:00.162Z,0
2017-11-11T04:57:01.835Z,0
2017-11-11T04:59:03.572Z,0
2017-11-11T05:01:05.166Z,0
2017-11-11T05:03:06.733Z,0
2017-11-11T05:05:08.218Z,0
2017-11-11T05:07:09.697Z,0
2017-11-11T05:09:11.450Z,0
2017-11-11T05:11:13.031Z,0
2017-11-11T05:13:14.746Z,0
2017-11-11T05:15:16.406Z,0
2017-11-11T05:17:18.258Z,0
2017-11-11T05:19:19.830Z,0
2017-11-11T05:21:21.515Z,0
2017-11-11T05:23:23.394Z,0
2017-11-11T05:25:25.033Z,0
2017-11-11T05:27:26.733Z,0
2017-11-11T05:29:28.620Z,0
2017-11-11T05:31:30.289Z,0
2017-11-11T05:33:31.960Z,0
2017-11-11T05:35:33.551Z,0
2017-11-11T05:37:35.321Z,0
2017-11-11T05:39:37.115Z,0
2017-11-11T05:41:38.855Z,0
2017-11-11T05:43:40.525Z,0
2017-11-11T05:45:42.129Z,0
2017-11-11T05:47:43.782Z,0
2017-11-11T05:49:45.618Z,0
2017-11-11T05:51:47.425Z,0
2017-11-11T05:53:49.187Z,0
2017-11-11T05:55:50.801Z,0
2017-11-11T05:57:52.234Z,0
2017-11-11T05:59:53.710Z,0
2017-11-11T06:01:55.471Z,0
2017-11-11T06:03:57.050Z,0
2017-11-11T06:05:58.747Z,0
2017-11-11T06:08:00.465Z,0
2017-11-11T06:10:01.924Z,0
2017-11-11T06:12:03.401Z,0
2017-11-11T06:14:04.901Z,0
2017-11-11T06:16:06.335Z,0
2017-11-11T06:18:07.754Z,0
2017-11-11T06:20:09.391Z,0
2017-11-11T06:22:10.950Z,0
2017-11-11T06:24:12.643Z,0
2017-11-11T06:26:14.207Z,0
2017-11-11T06:28:15.825Z,0
2017-11-11T06:30:17.509Z,0
2017-11-11T06:32:19.238Z,0
2017-11-11T06:34:20.923Z,0
2017-11-11T06:36:22.594Z,0
2017-11-11T06:38:24.318Z,0
2017-11-11T06:40:25.990Z,0
2017-11-11T06:42:27.790Z,0
2017-11-11T06:44:29.430Z,0
2017-11-11T06:46:31.183Z,0
2017-11-11T06:48:32.958Z,0
2017-11-11T06:50:34.469Z,0
2017-11-11T06:52:36.148Z,0
2017-11-11T06:54:37.809Z,5
2017-11-11T06:56:39.413Z,5
2017-11-11T06:58:41.183Z,0
2017-11-11T07:00:42.790Z,0
2017-11-11T07:02:44.282Z,0
2017-11-11T07:04:45.707Z,5
2017-11-11T07:06:47.338Z,5
2017-11-11T07:08:49.033Z,5
2017-11-11T07:10:50.641Z,5
2017-11-11T07:12:53.208Z,10
2017-11-11T07:14:54.955Z,10
2017-11-11T07:16:56.732Z,10
2017-11-11T07:18:58.488Z,10
2017-11-11T07:21:00.201Z,5
2017-11-11T07:23:02.005Z,5
2017-11-11T07:25:03.704Z,10
2017-11-11T07:27:05.441Z,10
2017-11-11T07:29:07.237Z,10
2017-11-11T07:31:08.944Z,5
2017-11-11T07:33:10.665Z,5
2017-11-11T07:35:12.362Z,10
2017-11-11T07:37:14.034Z,10
2017-11-11T07:39:15.863Z,10
2017-11-11T07:41:17.542Z,5
2017-11-11T07:43:19.220Z,5
2017-11-11T07:45:21.062Z,5
2017-11-11T07:47:22.935Z,5
2017-11-11T07:49:24.672Z,5
2017-11-11T07:51:26.402Z,5
2017-11-11T07:53:28.206Z,5
2017-11-11T07:55:29.955Z,10
2017-11-11T07:57:31.624Z,10
2017-11-11T07:59:33.269Z,10
2017-11-11T08:01:34.915Z,10
2017-11-11T08:03:36.769Z,15
2017-11-11T08:05:38.425Z,15
2017-11-11T08:07:40.089Z,20
2017-11-11T08:09:41.913Z,25
2017-11-11T08:11:43.648Z,45
2017-11-11T08:13:45.356Z,50
2017-11-11T08:15:46.951Z,40
2017-11-11T08:17:48.660Z,40
2017-11-11T08:19:50.342Z,60
2017-11-11T08:21:52.046Z,80
2017-11-11T08:23:53.774Z,85
2017-11-11T08:25:55.446Z,290
2017-11-11T08:27:57.174Z,385
2017-11-11T08:29:58.815Z,105
2017-11-11T08:32:00.485Z,260
2017-11-11T08:34:02.253Z,215
2017-11-11T08:36:03.928Z,65
2017-11-11T08:38:05.649Z,290
2017-11-11T08:40:07.546Z,225
2017-11-11T08:42:09.365Z,200
2017-11-11T08:44:10.955Z,135
2017-11-11T08:46:12.718Z,120
2017-11-11T08:48:14.450Z,75
2017-11-11T08:50:16.443Z,80
2017-11-11T08:52:18.926Z,75
2017-11-11T08:54:20.880Z,60
2017-11-11T08:56:22.606Z,55
2017-11-11T08:58:24.084Z,80
2017-11-11T09:00:25.594Z,85
2017-11-11T09:02:27.143Z,70
2017-11-11T09:04:28.641Z,65
2017-11-11T09:06:30.170Z,80
2017-11-11T09:08:31.640Z,55
2017-11-11T09:10:33.228Z,30
2017-11-11T09:12:34.715Z,25
2017-11-11T09:14:36.197Z,20
2017-11-11T09:16:37.669Z,25
2017-11-11T09:18:39.228Z,25
2017-11-11T09:20:40.858Z,25
2017-11-11T09:22:42.517Z,15
2017-11-11T09:24:44.174Z,15
2017-11-11T09:26:45.825Z,10
2017-11-11T09:28:47.542Z,10
2017-11-11T09:30:49.301Z,10
2017-11-11T09:32:51.015Z,5
2017-11-11T09:34:53.216Z,5
2017-11-11T09:36:54.833Z,10
2017-11-11T09:38:56.585Z,10
2017-11-11T09:40:58.290Z,15
2017-11-11T09:43:00.026Z,15
2017-11-11T09:45:01.666Z,15
2017-11-11T09:47:03.494Z,10
2017-11-11T09:49:05.170Z,15
2017-11-11T09:51:07.621Z,15
2017-11-11T09:53:09.172Z,10
2017-11-11T09:55:10.829Z,15
2017-11-11T09:57:12.467Z,15
2017-11-11T09:59:14.250Z,10
2017-11-11T10:01:16.863Z,5
2017-11-11T10:03:18.656Z,5
2017-11-11T10:05:20.319Z,5
2017-11-11T10:07:21.958Z,5
2017-11-11T10:09:23.645Z,5
2017-11-11T10:11:25.373Z,5
2017-11-11T10:13:27.214Z,5
2017-11-11T10:15:29.155Z,10
